Time;durP1;ratioP1;P1;durP2;ratioP2;P2;SDS_P1;SDS_P2;PMS_P1;PMS_P2;Temp;Humidity;BMP_temperature;BMP_pressure;BME280_temperature;BME280_humidity;BME280_pressure;Samples;Min_cycle;Max_cycle;Signal;HPM_P1;HPM_P2
2023/07/05 00:01:37;;;;;;;14.73;8.60;;;15.80;99.90;;;;;;5070549;28;20022;-70
2023/07/05 00:04:03;;;;;;;16.13;8.00;;;15.80;99.90;;;;;;5068690;28;20154;-70
2023/07/05 00:06:29;;;;;;;13.05;7.47;;;15.70;99.90;;;;;;5070369;28;20100;-70
2023/07/05 00:08:54;;;;;;;15.68;7.63;;;15.70;99.90;;;;;;5070019;28;20020;-70
2023/07/05 00:11:20;;;;;;;20.48;8.38;;;15.70;99.90;;;;;;5069270;28;20032;-70
2023/07/05 00:13:45;;;;;;;10.35;6.85;;;15.80;99.90;;;;;;5070544;28;20028;-70
2023/07/05 00:16:12;;;;;;;15.27;7.20;;;15.80;99.90;;;;;;5069723;28;20074;-70
2023/07/05 00:18:38;;;;;;;17.02;8.00;;;15.80;99.90;;;;;;5070349;28;20498;-70
2023/07/05 00:21:07;;;;;;;14.98;7.28;;;15.80;99.90;;;;;;5066573;28;20412;-70
2023/07/05 00:23:35;;;;;;;11.30;6.80;;;15.80;99.90;;;;;;5070185;28;20494;-70
2023/07/05 00:26:02;;;;;;;12.07;6.55;;;15.80;99.90;;;;;;5069837;28;20511;-70
2023/07/05 00:28:28;;;;;;;11.98;6.70;;;15.80;99.90;;;;;;5070045;28;20107;-70
2023/07/05 00:30:53;;;;;;;12.50;6.88;;;15.90;99.90;;;;;;5069776;28;20477;-70
2023/07/05 00:33:19;;;;;;;11.13;6.22;;;15.80;99.90;;;;;;5071112;28;20078;-70
2023/07/05 00:35:49;;;;;;;12.98;7.25;;;15.80;99.90;;;;;;5073874;28;20021;-70
2023/07/05 00:38:15;;;;;;;11.18;6.47;;;15.80;99.90;;;;;;5073706;28;20359;-70
2023/07/05 00:40:41;;;;;;;12.25;6.10;;;15.80;99.90;;;;;;5073697;28;20119;-70
2023/07/05 00:43:08;;;;;;;11.40;5.93;;;15.80;99.90;;;;;;5073208;28;20402;-70
2023/07/05 00:45:56;;;;;;;11.65;6.75;;;15.80;99.90;;;;;;5073820;28;20154;-70
2023/07/05 00:48:35;;;;;;;11.48;7.53;;;15.80;99.90;;;;;;5074095;28;20025;-70
2023/07/05 00:51:05;;;;;;;11.80;6.70;;;15.80;99.90;;;;;;5073236;28;20069;-70
2023/07/05 00:53:36;;;;;;;10.80;6.22;;;15.70;99.90;;;;;;5073308;28;20028;-70
2023/07/05 00:56:10;;;;;;;12.90;5.63;;;15.70;99.90;;;;;;5073197;28;20036;-71
2023/07/05 00:58:35;;;;;;;9.55;4.60;;;15.80;99.90;;;;;;5073314;28;20029;-70
2023/07/05 01:01:01;;;;;;;7.60;4.68;;;15.80;99.90;;;;;;5072794;28;20036;-70
2023/07/05 01:03:28;;;;;;;5.32;3.55;;;15.80;99.90;;;;;;5073549;28;20025;-70
2023/07/05 01:05:58;;;;;;;11.18;4.07;;;15.80;99.90;;;;;;5072756;28;20121;-70
2023/07/05 01:08:23;;;;;;;5.93;3.72;;;15.80;99.90;;;;;;5073050;28;20488;-70
2023/07/05 01:11:03;;;;;;;7.97;3.45;;;15.80;99.90;;;;;;5072688;28;20021;-70
2023/07/05 01:13:39;;;;;;;7.68;3.22;;;15.80;99.90;;;;;;5073270;28;20024;-70
2023/07/05 01:16:47;;;;;;;8.20;2.90;;;15.90;99.90;;;;;;5072297;28;20061;-70
2023/07/05 01:19:34;;;;;;;6.50;2.88;;;15.90;99.90;;;;;;5065117;28;20041;-70
2023/07/05 01:22:07;;;;;;;6.18;2.75;;;15.90;99.90;;;;;;5052608;28;20036;-71
2023/07/05 01:24:38;;;;;;;5.28;2.72;;;15.90;99.90;;;;;;5053030;28;20420;-70
2023/07/05 01:27:32;;;;;;;4.28;2.70;;;16.00;99.90;;;;;;5052356;28;20094;-71
2023/07/05 01:30:41;;;;;;;4.57;2.88;;;16.00;99.90;;;;;;5067207;28;20040;-71
2023/07/05 01:33:11;;;;;;;7.90;2.88;;;16.00;99.90;;;;;;5072161;28;20063;-70
2023/07/05 01:35:43;;;;;;;5.68;2.65;;;16.00;99.90;;;;;;5072525;28;20120;-70
2023/07/05 01:38:09;;;;;;;6.57;2.47;;;16.00;99.90;;;;;;5071186;28;20048;-70
2023/07/05 01:40:34;;;;;;;6.20;3.40;;;16.00;99.90;;;;;;5072566;28;20025;-70
2023/07/05 01:43:07;;;;;;;5.43;3.10;;;16.00;99.90;;;;;;5072158;28;20107;-70
2023/07/05 01:45:56;;;;;;;4.63;3.15;;;16.00;99.90;;;;;;5073822;28;20112;-70
2023/07/05 01:48:56;;;;;;;4.78;2.53;;;16.00;99.90;;;;;;5072441;28;20029;-70
2023/07/05 01:51:43;;;;;;;8.18;3.17;;;16.10;99.90;;;;;;5072651;28;20028;-70
2023/07/05 01:54:43;;;;;;;4.88;2.65;;;16.00;99.90;;;;;;5071998;28;20086;-70
2023/07/05 01:57:29;;;;;;;4.00;2.70;;;16.10;99.90;;;;;;5070722;28;20496;-70
2023/07/05 02:00:07;;;;;;;6.18;2.97;;;16.20;99.90;;;;;;5070744;28;20033;-70
2023/07/05 02:02:37;;;;;;;4.68;1.95;;;16.20;99.90;;;;;;5072382;28;20025;-70
2023/07/05 02:05:05;;;;;;;5.57;1.88;;;16.20;99.90;;;;;;5070559;28;20032;-70
2023/07/05 02:07:31;;;;;;;5.30;2.17;;;16.30;99.90;;;;;;5071993;28;20032;-70
2023/07/05 02:09:57;;;;;;;4.20;1.98;;;16.30;99.90;;;;;;5071630;28;20036;-70
2023/07/05 02:12:24;;;;;;;4.32;2.25;;;16.30;99.90;;;;;;5071709;28;20052;-70
2023/07/05 02:14:49;;;;;;;3.17;1.50;;;16.30;99.90;;;;;;5071768;28;20036;-70
2023/07/05 02:17:15;;;;;;;4.07;1.60;;;16.20;99.90;;;;;;5071430;28;20482;-70
2023/07/05 02:19:41;;;;;;;7.30;1.88;;;16.20;99.90;;;;;;5070628;28;20106;-70
2023/07/05 02:22:07;;;;;;;4.22;1.65;;;16.20;99.90;;;;;;5071205;28;20490;-70
2023/07/05 02:24:32;;;;;;;4.20;1.60;;;16.20;99.90;;;;;;5070648;28;20021;-70
2023/07/05 02:26:59;;;;;;;4.30;1.33;;;16.30;99.90;;;;;;5071178;28;20518;-70
2023/07/05 02:29:25;;;;;;;4.20;1.85;;;16.20;99.90;;;;;;5071733;28;20471;-70
2023/07/05 02:31:51;;;;;;;3.67;1.67;;;16.20;99.90;;;;;;5070844;28;20032;-70
2023/07/05 02:34:17;;;;;;;6.28;1.48;;;16.20;99.90;;;;;;5071647;28;20166;-70
2023/07/05 02:36:43;;;;;;;4.30;1.73;;;16.20;99.90;;;;;;5071825;28;20056;-70
2023/07/05 02:39:08;;;;;;;3.58;1.13;;;16.10;99.90;;;;;;5069595;28;20101;-70
2023/07/05 02:41:34;;;;;;;3.58;1.50;;;16.10;99.90;;;;;;5071513;28;20051;-70
2023/07/05 02:43:59;;;;;;;3.72;1.40;;;16.00;99.90;;;;;;5070887;28;20031;-70
2023/07/05 02:46:26;;;;;;;2.63;1.38;;;16.00;99.90;;;;;;5071254;28;20029;-70
2023/07/05 02:48:57;;;;;;;2.75;1.60;;;15.90;99.90;;;;;;5070916;28;20035;-71
2023/07/05 02:51:24;;;;;;;5.13;2.25;;;15.90;99.90;;;;;;5071238;28;20024;-70
2023/07/05 02:53:49;;;;;;;4.15;2.17;;;15.90;99.90;;;;;;5070777;28;20029;-70
2023/07/05 02:56:15;;;;;;;3.60;1.42;;;15.80;99.90;;;;;;5071095;28;20029;-70
2023/07/05 02:58:41;;;;;;;3.55;1.35;;;15.70;99.90;;;;;;5071608;28;20060;-70
2023/07/05 03:01:07;;;;;;;4.15;1.52;;;15.60;99.90;;;;;;5070330;28;20081;-70
2023/07/05 03:03:32;;;;;;;2.92;1.30;;;15.50;99.90;;;;;;5069828;28;20022;-70
2023/07/05 03:05:59;;;;;;;4.57;1.27;;;15.30;99.90;;;;;;5070961;28;20464;-70
2023/07/05 03:08:27;;;;;;;3.53;1.90;;;15.20;99.90;;;;;;5070904;28;20025;-70
2023/07/05 03:10:54;;;;;;;4.20;1.77;;;15.00;99.90;;;;;;5070624;28;20437;-70
2023/07/05 03:13:25;;;;;;;4.10;1.67;;;14.90;99.90;;;;;;5071035;28;20486;-70
2023/07/05 03:15:51;;;;;;;4.20;1.60;;;14.70;99.90;;;;;;5070188;28;20063;-70
2023/07/05 03:18:16;;;;;;;3.15;1.73;;;14.70;99.90;;;;;;5069468;28;20068;-70
2023/07/05 03:20:45;;;;;;;5.10;1.60;;;14.60;99.90;;;;;;5071019;28;20584;-70
2023/07/05 03:23:11;;;;;;;3.97;2.03;;;14.50;99.90;;;;;;5070594;28;20035;-70
2023/07/05 03:25:36;;;;;;;3.50;2.22;;;14.50;99.90;;;;;;5070724;28;20044;-70
2023/07/05 03:28:02;;;;;;;4.10;1.60;;;14.40;99.90;;;;;;5070446;28;20024;-70
2023/07/05 03:30:28;;;;;;;5.47;1.90;;;14.40;99.90;;;;;;5070501;28;20375;-70
2023/07/05 03:32:53;;;;;;;2.60;1.40;;;14.40;99.90;;;;;;5070381;28;20027;-70
2023/07/05 03:35:19;;;;;;;4.50;1.88;;;14.30;99.90;;;;;;5070714;28;20028;-70
2023/07/05 03:37:44;;;;;;;5.32;1.55;;;14.30;99.90;;;;;;5070767;28;20021;-70
2023/07/05 03:40:10;;;;;;;6.07;1.42;;;14.30;99.90;;;;;;5070305;28;20100;-70
2023/07/05 03:42:37;;;;;;;5.05;1.75;;;14.20;99.90;;;;;;5070739;28;20374;-70
2023/07/05 03:45:03;;;;;;;4.32;1.67;;;14.10;99.90;;;;;;5070128;28;20558;-70
2023/07/05 03:47:28;;;;;;;5.05;1.50;;;14.10;99.90;;;;;;5070987;28;20107;-70
2023/07/05 03:49:54;;;;;;;5.82;2.15;;;14.00;99.90;;;;;;5070321;28;20111;-70
2023/07/05 03:52:20;;;;;;;3.70;1.27;;;14.00;99.90;;;;;;5069504;28;20028;-70
2023/07/05 03:54:45;;;;;;;3.10;1.25;;;14.10;99.90;;;;;;5070604;28;20032;-70
2023/07/05 03:57:11;;;;;;;4.35;2.00;;;14.10;99.90;;;;;;5068855;28;20024;-70
2023/07/05 03:59:36;;;;;;;4.35;1.88;;;14.10;99.90;;;;;;5070493;28;20033;-70
2023/07/05 04:02:02;;;;;;;4.80;2.13;;;14.00;99.90;;;;;;5069984;28;20021;-70
2023/07/05 04:04:27;;;;;;;9.40;2.08;;;14.00;99.90;;;;;;5070515;28;20029;-70
2023/07/05 04:06:53;;;;;;;4.18;1.85;;;14.00;99.90;;;;;;5070218;28;20028;-70
2023/07/05 04:09:18;;;;;;;3.83;1.88;;;14.00;99.90;;;;;;5072551;28;20037;-70
2023/07/05 04:11:44;;;;;;;4.05;1.75;;;14.00;99.90;;;;;;5073133;28;20048;-70
2023/07/05 04:14:11;;;;;;;4.32;2.38;;;14.00;99.90;;;;;;5073775;28;20056;-70
2023/07/05 04:16:37;;;;;;;6.03;2.30;;;14.00;99.90;;;;;;5071582;28;20025;-70
2023/07/05 04:19:03;;;;;;;6.50;2.30;;;14.10;99.90;;;;;;5073677;28;20021;-70
2023/07/05 04:21:29;;;;;;;5.00;1.85;;;14.10;99.90;;;;;;5076088;28;20402;-70
2023/07/05 04:23:54;;;;;;;6.72;2.55;;;14.10;99.90;;;;;;5073837;28;20033;-70
2023/07/05 04:26:23;;;;;;;4.68;2.55;;;14.10;99.90;;;;;;5073982;28;20059;-70
2023/07/05 04:28:50;;;;;;;6.03;2.60;;;14.10;99.90;;;;;;5073465;28;20029;-70
2023/07/05 04:31:20;;;;;;;3.78;2.10;;;14.10;99.90;;;;;;5073609;28;20119;-70
2023/07/05 04:33:45;;;;;;;5.20;2.58;;;14.20;99.90;;;;;;5073946;28;20092;-70
2023/07/05 04:36:11;;;;;;;6.05;2.53;;;14.20;99.90;;;;;;5072323;28;20127;-70
2023/07/05 04:38:37;;;;;;;5.72;2.47;;;14.30;99.90;;;;;;5073792;28;20012;-70
2023/07/05 04:41:03;;;;;;;5.78;2.67;;;14.30;99.90;;;;;;5072120;28;20048;-70
2023/07/05 04:43:29;;;;;;;10.27;2.70;;;14.30;99.90;;;;;;5073713;28;20048;-70
2023/07/05 04:45:56;;;;;;;5.25;2.75;;;14.30;99.90;;;;;;5071978;28;20482;-70
2023/07/05 04:48:23;;;;;;;5.07;3.53;;;14.40;99.90;;;;;;5072282;28;20020;-70
2023/07/05 04:50:52;;;;;;;5.25;2.35;;;14.50;99.90;;;;;;5073307;28;20083;-70
2023/07/05 04:53:18;;;;;;;6.68;2.90;;;14.50;99.90;;;;;;5073772;28;20029;-70
2023/07/05 04:55:52;;;;;;;5.72;2.75;;;14.50;99.90;;;;;;5073293;28;20032;-70
2023/07/05 04:58:18;;;;;;;4.60;2.47;;;14.50;99.90;;;;;;5073238;28;20012;-70
2023/07/05 05:00:51;;;;;;;6.05;2.25;;;14.70;99.90;;;;;;5073366;28;20024;-70
2023/07/05 05:03:21;;;;;;;4.57;1.90;;;14.80;99.90;;;;;;5073408;28;20027;-70
2023/07/05 05:05:51;;;;;;;7.30;2.70;;;14.90;99.90;;;;;;5071944;28;20029;-70
2023/07/05 05:08:16;;;;;;;7.00;2.85;;;14.90;99.90;;;;;;5073262;28;20099;-70
2023/07/05 05:10:42;;;;;;;9.27;2.92;;;14.90;99.90;;;;;;5072790;28;20153;-70
2023/07/05 05:13:08;;;;;;;6.85;2.85;;;15.00;99.90;;;;;;5073038;28;20509;-70
2023/07/05 05:15:38;;;;;;;3.92;2.25;;;15.10;99.90;;;;;;5072077;28;20027;-70
2023/07/05 05:18:07;;;;;;;6.22;2.33;;;15.10;99.90;;;;;;5072833;28;20025;-70
2023/07/05 05:20:33;;;;;;;5.43;2.13;;;15.10;99.90;;;;;;5071839;28;20025;-70
2023/07/05 05:22:59;;;;;;;7.13;3.00;;;15.10;99.90;;;;;;5072523;28;20052;-70
2023/07/05 05:25:27;;;;;;;6.88;2.63;;;15.10;99.90;;;;;;5072663;28;20145;-70
2023/07/05 05:27:52;;;;;;;4.75;2.30;;;15.10;99.90;;;;;;5072694;28;20032;-70
2023/07/05 05:30:18;;;;;;;5.68;2.60;;;15.20;99.90;;;;;;5072827;28;20044;-70
2023/07/05 05:32:45;;;;;;;6.95;2.80;;;15.20;99.90;;;;;;5072688;28;20028;-70
2023/07/05 05:35:11;;;;;;;7.03;2.22;;;15.20;99.90;;;;;;5072128;28;20071;-70
2023/07/05 05:37:36;;;;;;;6.30;2.53;;;15.10;99.90;;;;;;5072912;28;20108;-70
2023/07/05 05:40:02;;;;;;;6.93;2.67;;;15.10;99.90;;;;;;5072482;28;20025;-71
2023/07/05 05:42:29;;;;;;;5.18;2.70;;;15.10;99.90;;;;;;5072534;28;20028;-70
2023/07/05 05:44:55;;;;;;;5.20;2.70;;;15.00;99.90;;;;;;5072008;28;20103;-70
2023/07/05 05:47:20;;;;;;;6.70;2.63;;;15.10;99.90;;;;;;5072659;28;20124;-70
2023/07/05 05:49:46;;;;;;;7.82;2.33;;;15.10;99.90;;;;;;5072656;28;20036;-70
2023/07/05 05:52:11;;;;;;;4.60;2.20;;;15.20;99.90;;;;;;5072338;28;20028;-70
2023/07/05 05:54:37;;;;;;;6.30;2.10;;;15.20;99.90;;;;;;5072134;28;20043;-70
2023/07/05 05:57:03;;;;;;;2.95;1.48;;;15.20;99.90;;;;;;5071896;28;20031;-70
2023/07/05 05:59:28;;;;;;;9.07;2.00;;;15.10;99.90;;;;;;5071217;28;20024;-70
2023/07/05 06:01:54;;;;;;;5.78;1.58;;;15.00;99.90;;;;;;5071786;28;20020;-70
2023/07/05 06:04:19;;;;;;;7.32;1.85;;;15.00;99.90;;;;;;5072439;28;20021;-70
2023/07/05 06:06:45;;;;;;;3.13;1.85;;;15.00;99.90;;;;;;5071995;28;20024;-70
2023/07/05 06:09:10;;;;;;;5.25;2.25;;;14.90;99.90;;;;;;5071591;28;20037;-70
2023/07/05 06:11:36;;;;;;;6.13;1.83;;;14.90;99.90;;;;;;5072383;28;20086;-70
2023/07/05 06:14:02;;;;;;;4.57;1.75;;;15.00;99.90;;;;;;5067207;28;20107;-70
2023/07/05 06:16:27;;;;;;;6.93;2.33;;;15.10;99.90;;;;;;5072293;28;20036;-70
2023/07/05 06:18:53;;;;;;;6.03;1.90;;;15.20;99.90;;;;;;5070956;28;20118;-71
2023/07/05 06:21:18;;;;;;;5.10;2.20;;;15.20;99.90;;;;;;5072026;28;20070;-70
2023/07/05 06:23:44;;;;;;;4.88;2.15;;;15.30;99.90;;;;;;5071812;28;20086;-70
2023/07/05 06:26:10;;;;;;;3.55;1.60;;;15.30;99.90;;;;;;5071071;28;20080;-70
2023/07/05 06:28:35;;;;;;;5.57;1.60;;;15.20;99.90;;;;;;5071747;28;20051;-70
2023/07/05 06:31:06;;;;;;;4.20;1.75;;;15.20;99.90;;;;;;5069432;28;20036;-70
2023/07/05 06:33:32;;;;;;;5.35;1.90;;;15.10;99.90;;;;;;5070768;28;20033;-70
2023/07/05 06:36:00;;;;;;;4.82;1.40;;;15.00;99.90;;;;;;5071078;28;20020;-70
2023/07/05 06:38:26;;;;;;;4.38;1.42;;;14.90;99.90;;;;;;5071349;28;20464;-70
2023/07/05 06:40:52;;;;;;;3.78;1.92;;;14.80;99.90;;;;;;5070869;28;20390;-70
2023/07/05 06:43:19;;;;;;;5.88;1.88;;;14.70;99.90;;;;;;5071118;28;20029;-70
2023/07/05 06:45:49;;;;;;;10.15;2.25;;;14.60;99.90;;;;;;5071421;28;20086;-70
2023/07/05 06:48:15;;;;;;;5.43;2.28;;;14.60;99.90;;;;;;5070179;28;20073;-70
2023/07/05 06:50:41;;;;;;;3.13;1.58;;;14.60;99.90;;;;;;5071225;28;20397;-70
2023/07/05 06:53:41;;;;;;;3.63;1.60;;;14.60;99.90;;;;;;5070055;28;20134;-70
2023/07/05 06:56:09;;;;;;;4.10;1.42;;;14.60;99.90;;;;;;5070940;28;20037;-71
2023/07/05 06:58:35;;;;;;;4.28;1.90;;;14.60;99.90;;;;;;5072927;28;20024;-70
2023/07/05 07:01:00;;;;;;;5.63;1.73;;;14.60;99.90;;;;;;5071530;28;20051;-72
2023/07/05 07:03:26;;;;;;;6.05;1.98;;;14.40;99.90;;;;;;5072200;28;20348;-70
2023/07/05 07:05:53;;;;;;;4.70;1.45;;;14.30;99.90;;;;;;5070579;28;20047;-71
2023/07/05 07:08:21;;;;;;;7.07;1.75;;;14.20;99.90;;;;;;5071134;28;20035;-71
2023/07/05 07:10:47;;;;;;;6.13;1.83;;;14.00;99.90;;;;;;5069533;28;20170;-70
2023/07/05 07:13:13;;;;;;;6.05;1.65;;;13.90;99.90;;;;;;5070541;28;20495;-70
2023/07/05 07:15:39;;;;;;;7.93;1.48;;;13.80;99.90;;;;;;5069672;28;20017;-69
2023/07/05 07:18:04;;;;;;;2.10;0.60;;;13.60;99.90;;;;;;5070796;28;20038;-69
2023/07/05 07:20:31;;;;;;;3.63;0.70;;;13.40;99.90;;;;;;5070998;28;20068;-69
2023/07/05 07:22:59;;;;;;;4.10;0.60;;;13.10;99.90;;;;;;5070523;28;20016;-68
2023/07/05 07:25:25;;;;;;;2.90;0.68;;;12.90;99.90;;;;;;5070727;28;20171;-68
2023/07/05 07:27:50;;;;;;;3.22;0.70;;;12.70;99.90;;;;;;5070623;28;20033;-69
2023/07/05 07:30:16;;;;;;;4.32;0.80;;;12.50;99.90;;;;;;5070541;28;20033;-69
2023/07/05 07:32:47;;;;;;;4.78;1.40;;;12.50;99.90;;;;;;5070717;28;20020;-69
2023/07/05 07:35:14;;;;;;;6.47;1.67;;;12.60;99.90;;;;;;5068973;28;20078;-69
2023/07/05 07:37:39;;;;;;;5.25;2.03;;;12.70;99.90;;;;;;5070698;28;20021;-69
2023/07/05 07:40:06;;;;;;;6.00;1.75;;;12.90;99.90;;;;;;5070477;28;20040;-69
2023/07/05 07:42:33;;;;;;;5.05;1.05;;;13.00;99.90;;;;;;5069483;28;20027;-69
2023/07/05 07:44:58;;;;;;;4.60;1.25;;;13.20;99.90;;;;;;5073842;28;20033;-69
2023/07/05 07:47:24;;;;;;;8.52;1.55;;;13.20;99.90;;;;;;5074774;28;20020;-70
2023/07/05 07:49:50;;;;;;;5.03;1.67;;;13.30;99.90;;;;;;5074724;28;20036;-70
2023/07/05 07:52:18;;;;;;;5.25;1.95;;;13.40;99.90;;;;;;5074701;28;20032;-70
2023/07/05 07:54:43;;;;;;;6.75;1.88;;;13.50;99.90;;;;;;5073575;28;20031;-70
2023/07/05 07:57:09;;;;;;;4.90;1.20;;;13.60;99.90;;;;;;5074282;28;20025;-70
2023/07/05 07:59:38;;;;;;;3.67;1.15;;;13.70;99.90;;;;;;5074501;28;20224;-70
2023/07/05 08:02:06;;;;;;;3.35;1.20;;;13.70;99.90;;;;;;5074032;28;20024;-70
2023/07/05 08:04:32;;;;;;;7.35;1.58;;;13.80;99.90;;;;;;5074323;28;20490;-71
2023/07/05 08:06:57;;;;;;;5.05;1.40;;;13.90;99.90;;;;;;5074040;28;20017;-70
2023/07/05 08:09:27;;;;;;;3.58;1.50;;;14.00;99.90;;;;;;5071311;28;20090;-70
2023/07/05 08:11:55;;;;;;;5.03;1.73;;;13.90;99.90;;;;;;5059403;28;20029;-70
2023/07/05 08:14:20;;;;;;;7.63;1.85;;;13.90;99.90;;;;;;5074148;28;20078;-70
2023/07/05 08:16:46;;;;;;;5.68;1.55;;;13.80;99.90;;;;;;5074429;28;20028;-70
2023/07/05 08:19:12;;;;;;;5.07;1.88;;;13.80;99.90;;;;;;5073740;28;20028;-70
2023/07/05 08:21:37;;;;;;;4.13;1.95;;;13.80;99.90;;;;;;5074495;28;20023;-70
2023/07/05 08:24:04;;;;;;;7.65;2.20;;;13.90;99.90;;;;;;5073750;28;20025;-70
2023/07/05 08:26:30;;;;;;;6.97;2.00;;;13.80;99.90;;;;;;5073924;28;20040;-70
2023/07/05 08:28:57;;;;;;;6.43;2.30;;;13.80;99.90;;;;;;5073246;28;20390;-70
2023/07/05 08:31:23;;;;;;;5.57;2.20;;;14.00;99.90;;;;;;5073666;28;20094;-70
2023/07/05 08:33:49;;;;;;;5.80;2.25;;;14.20;99.90;;;;;;5073296;28;20505;-70
2023/07/05 08:36:14;;;;;;;5.15;2.30;;;14.40;99.90;;;;;;5073794;28;20021;-70
2023/07/05 08:38:46;;;;;;;5.45;2.50;;;14.30;99.90;;;;;;5073957;28;20103;-70
2023/07/05 08:41:20;;;;;;;6.50;2.88;;;14.30;99.90;;;;;;5073396;28;20559;-70
2023/07/05 08:43:57;;;;;;;6.47;3.08;;;14.20;99.90;;;;;;5073845;28;20048;-70
2023/07/05 08:46:25;;;;;;;6.20;3.08;;;14.20;99.90;;;;;;5073285;28;20104;-70
2023/07/05 08:48:58;;;;;;;4.55;2.72;;;14.30;99.90;;;;;;5073348;28;20028;-70
2023/07/05 08:51:24;;;;;;;6.00;3.08;;;14.30;99.90;;;;;;5073911;28;20040;-70
2023/07/05 08:53:56;;;;;;;10.20;3.70;;;14.50;99.90;;;;;;5073076;28;20506;-70
2023/07/05 08:56:26;;;;;;;7.18;3.10;;;14.70;99.90;;;;;;5073567;28;20113;-70
2023/07/05 08:59:18;;;;;;;5.45;2.90;;;14.90;99.90;;;;;;5072693;28;20107;-71
2023/07/05 09:01:44;;;;;;;8.00;2.70;;;15.00;99.90;;;;;;5073734;28;20028;-70
2023/07/05 09:04:14;;;;;;;4.55;1.75;;;15.20;99.90;;;;;;5072775;28;20467;-71
2023/07/05 09:07:05;;;;;;;8.43;2.97;;;15.50;99.90;;;;;;5073419;28;20036;-70
2023/07/05 09:09:37;;;;;;;5.13;2.70;;;15.90;99.90;;;;;;5055199;28;20053;-71
2023/07/05 09:12:17;;;;;;;8.13;2.42;;;16.10;99.90;;;;;;5072890;28;20069;-71
2023/07/05 09:15:05;;;;;;;6.35;2.15;;;16.20;99.90;;;;;;5073193;28;20495;-71
2023/07/05 09:17:49;;;;;;;7.82;2.13;;;16.20;99.90;;;;;;5072813;28;20032;-70
2023/07/05 09:20:50;;;;;;;11.40;2.22;;;16.30;99.90;;;;;;5073020;28;20032;-71
2023/07/05 09:23:37;;;;;;;6.45;1.92;;;16.40;99.90;;;;;;5072567;28;20406;-71
2023/07/05 09:26:19;;;;;;;7.28;1.85;;;16.50;99.90;;;;;;5072939;28;20052;-71
2023/07/05 09:29:06;;;;;;;7.63;1.80;;;16.70;99.90;;;;;;5072009;28;20017;-72
2023/07/05 09:31:34;;;;;;;6.93;1.73;;;16.80;99.90;;;;;;5073071;28;20044;-71
2023/07/05 09:34:18;;;;;;;7.35;1.55;;;16.80;99.90;;;;;;5072389;28;20016;-71
2023/07/05 09:36:49;;;;;;;7.07;1.52;;;16.80;99.90;;;;;;5073023;28;20017;-71
2023/07/05 09:39:47;;;;;;;5.70;1.10;;;16.70;99.90;;;;;;5071630;28;20039;-72
2023/07/05 09:42:30;;;;;;;3.80;1.10;;;16.50;99.90;;;;;;5072305;28;20037;-71
2023/07/05 09:44:56;;;;;;;6.18;1.27;;;16.40;99.90;;;;;;5072843;28;20036;-71
2023/07/05 09:47:23;;;;;;;6.20;1.35;;;16.50;99.90;;;;;;5072564;28;20029;-71
2023/07/05 09:49:49;;;;;;;6.53;1.45;;;16.60;99.90;;;;;;5072940;28;20474;-71
2023/07/05 09:52:23;;;;;;;6.82;1.25;;;16.70;99.90;;;;;;5072823;28;20028;-71
2023/07/05 09:54:53;;;;;;;5.50;1.27;;;16.90;99.90;;;;;;5072300;28;20430;-71
2023/07/05 09:57:24;;;;;;;6.93;1.35;;;17.20;99.90;;;;;;5072056;28;20020;-72
2023/07/05 09:59:52;;;;;;;4.68;0.90;;;17.50;99.90;;;;;;5072297;28;20020;-72
2023/07/05 10:02:22;;;;;;;5.70;0.98;;;17.70;99.90;;;;;;5072388;28;20031;-72
2023/07/05 10:04:50;;;;;;;8.80;1.10;;;17.90;99.90;;;;;;5072320;28;20033;-71
2023/07/05 10:07:24;;;;;;;6.00;1.88;;;18.00;99.90;;;;;;5062939;28;20126;-72
2023/07/05 10:10:10;;;;;;;9.30;0.75;;;18.10;99.90;;;;;;5051819;28;20064;-71
2023/07/05 10:12:43;;;;;;;8.90;1.13;;;18.20;99.90;;;;;;5052585;28;20025;-71
2023/07/05 10:15:21;;;;;;;3.60;0.50;;;18.30;99.90;;;;;;5068197;28;20034;-71
2023/07/05 10:17:48;;;;;;;4.72;0.88;;;18.30;99.90;;;;;;5071961;28;20475;-71
2023/07/05 10:20:19;;;;;;;3.83;0.60;;;18.40;99.90;;;;;;5071536;28;20044;-71
2023/07/05 10:22:44;;;;;;;11.35;0.73;;;18.50;99.90;;;;;;5071685;28;20482;-71
2023/07/05 10:25:19;;;;;;;6.32;0.60;;;18.70;99.90;;;;;;5071214;28;20517;-72
2023/07/05 10:27:50;;;;;;;5.60;0.75;;;18.80;99.90;;;;;;5072004;28;20067;-71
2023/07/05 10:30:20;;;;;;;4.90;0.70;;;18.80;99.90;;;;;;5072310;28;20078;-71
2023/07/05 10:33:06;;;;;;;8.82;0.60;;;18.70;99.90;;;;;;5071512;28;20390;-71
2023/07/05 10:35:55;;;;;;;2.30;0.55;;;18.40;99.90;;;;;;5070247;28;20028;-71
2023/07/05 10:38:29;;;;;;;6.40;0.95;;;18.30;99.90;;;;;;5071690;28;20117;-72
2023/07/05 10:41:00;;;;;;;4.78;0.77;;;18.30;99.90;;;;;;5071118;28;20089;-71
2023/07/05 10:43:30;;;;;;;5.93;0.77;;;18.30;99.90;;;;;;5071389;28;20107;-71
2023/07/05 10:45:55;;;;;;;3.25;0.40;;;18.50;99.90;;;;;;5071086;28;20509;-71
2023/07/05 10:48:30;;;;;;;3.63;0.50;;;18.60;99.90;;;;;;5071248;28;20028;-71
2023/07/05 10:50:57;;;;;;;4.95;0.70;;;18.70;99.90;;;;;;5070806;28;20490;-71
2023/07/05 10:53:25;;;;;;;3.72;0.50;;;18.80;99.90;;;;;;5071583;28;20029;-71
2023/07/05 10:56:03;;;;;;;6.78;0.50;;;18.90;99.90;;;;;;5070586;28;20024;-71
2023/07/05 10:58:41;;;;;;;5.75;0.60;;;18.90;99.70;;;;;;5071415;28;20028;-71
2023/07/05 11:01:18;;;;;;;6.07;0.65;;;18.90;99.90;;;;;;5070953;28;20029;-71
2023/07/05 11:03:51;;;;;;;3.90;0.57;;;19.10;99.80;;;;;;5071032;28;20020;-71
2023/07/05 11:06:17;;;;;;;4.65;0.45;;;19.10;99.70;;;;;;5070531;28;20024;-71
2023/07/05 11:08:45;;;;;;;5.65;0.50;;;19.10;99.80;;;;;;5071205;28;20114;-72
2023/07/05 11:11:31;;;;;;;2.35;0.45;;;19.20;98.60;;;;;;5069348;28;20078;-72
2023/07/05 11:14:00;;;;;;;3.60;0.50;;;19.30;98.60;;;;;;5070396;28;20016;-72
2023/07/05 11:16:27;;;;;;;4.85;0.52;;;19.30;98.60;;;;;;5071056;28;20020;-72
2023/07/05 11:19:02;;;;;;;3.25;0.40;;;19.30;98.40;;;;;;5069135;28;20052;-71
2023/07/05 11:21:36;;;;;;;3.70;0.45;;;19.50;98.30;;;;;;5070630;28;20032;-71
2023/07/05 11:24:04;;;;;;;2.60;0.43;;;19.50;97.10;;;;;;5070560;28;20060;-71
2023/07/05 11:26:31;;;;;;;5.35;0.40;;;19.40;96.70;;;;;;5070760;28;20075;-72
2023/07/05 11:28:56;;;;;;;2.83;0.40;;;19.30;96.30;;;;;;5070724;28;20071;-71
2023/07/05 11:31:28;;;;;;;4.35;0.40;;;19.00;96.80;;;;;;5070594;28;20482;-72
2023/07/05 11:34:24;;;;;;;3.70;0.40;;;19.00;97.20;;;;;;5070527;28;20024;-71
2023/07/05 11:37:10;;;;;;;4.20;0.50;;;19.00;96.50;;;;;;5069859;28;20537;-71
2023/07/05 11:39:38;;;;;;;9.10;0.60;;;18.90;97.20;;;;;;5066510;28;20066;-71
2023/07/05 11:42:12;;;;;;;2.28;0.50;;;18.90;97.60;;;;;;5070319;28;20029;-71
2023/07/05 11:44:43;;;;;;;4.53;0.47;;;18.90;98.20;;;;;;5070829;28;20128;-71
2023/07/05 11:47:30;;;;;;;4.90;0.50;;;19.10;97.90;;;;;;5070769;28;20364;-71
2023/07/05 11:49:57;;;;;;;4.82;0.65;;;19.40;97.30;;;;;;5069623;28;20052;-71
2023/07/05 11:52:31;;;;;;;4.75;0.60;;;19.60;97.30;;;;;;5070814;28;20381;-71
2023/07/05 11:54:59;;;;;;;2.47;0.40;;;19.60;97.10;;;;;;5070263;28;20070;-71
2023/07/05 11:57:27;;;;;;;4.68;0.50;;;19.60;96.30;;;;;;5070568;28;20039;-72
2023/07/05 12:00:12;;;;;;;4.25;0.40;;;19.70;95.60;;;;;;5070278;28;20028;-71
2023/07/05 12:02:47;;;;;;;6.22;0.90;;;19.60;94.90;;;;;;5070271;28;20107;-71
2023/07/05 12:05:15;;;;;;;3.85;0.70;;;19.40;94.90;;;;;;5068663;28;20017;-71
2023/07/05 12:07:43;;;;;;;6.07;0.90;;;19.30;95.30;;;;;;5070451;28;20086;-72
2023/07/05 12:10:18;;;;;;;3.33;0.63;;;19.40;95.40;;;;;;5070226;28;20037;-71
2023/07/05 12:12:43;;;;;;;3.42;0.50;;;19.60;95.10;;;;;;5070884;28;20111;-72
2023/07/05 12:15:14;;;;;;;4.57;0.70;;;19.80;94.60;;;;;;5069872;28;20052;-71
2023/07/05 12:17:40;;;;;;;4.00;0.47;;;19.80;94.20;;;;;;5071935;28;20021;-72
2023/07/05 12:20:47;;;;;;;5.32;0.68;;;19.70;93.90;;;;;;5071603;28;20363;-71
2023/07/05 12:23:15;;;;;;;4.32;0.63;;;19.70;93.70;;;;;;5070060;28;20024;-71
2023/07/05 12:25:52;;;;;;;2.40;0.85;;;19.70;93.70;;;;;;5070160;28;20082;-71
2023/07/05 12:28:25;;;;;;;3.80;0.40;;;19.80;93.80;;;;;;5068925;28;20025;-71
2023/07/05 12:30:56;;;;;;;3.60;0.50;;;19.80;93.30;;;;;;5071412;28;20032;-71
2023/07/05 12:33:27;;;;;;;3.65;0.50;;;19.70;92.70;;;;;;5074345;28;20062;-71
2023/07/05 12:36:09;;;;;;;4.10;0.50;;;19.40;92.70;;;;;;5073400;28;20470;-71
2023/07/05 12:38:36;;;;;;;3.63;0.75;;;19.20;92.70;;;;;;5074030;28;20020;-71
2023/07/05 12:41:03;;;;;;;4.80;0.60;;;19.20;93.40;;;;;;5073669;28;20482;-71
2023/07/05 12:43:29;;;;;;;2.55;0.40;;;19.40;92.90;;;;;;5073735;28;20386;-71
2023/07/05 12:46:15;;;;;;;6.60;1.33;;;19.50;93.00;;;;;;5073635;28;20028;-71
2023/07/05 12:48:41;;;;;;;3.03;0.50;;;19.50;93.00;;;;;;5072312;28;20025;-71
2023/07/05 12:51:21;;;;;;;2.22;0.50;;;19.50;93.20;;;;;;5072046;28;20508;-71
2023/07/05 12:53:56;;;;;;;5.07;0.60;;;19.70;93.40;;;;;;5073930;28;20028;-71
2023/07/05 12:56:31;;;;;;;5.07;0.40;;;19.70;92.90;;;;;;5072249;28;20029;-71
2023/07/05 12:59:06;;;;;;;4.88;0.60;;;19.70;93.10;;;;;;5073421;28;20021;-71
2023/07/05 13:01:41;;;;;;;3.45;0.52;;;19.60;92.30;;;;;;5073687;28;20081;-71